createdAt,value
2017-08-23T00:01:50.548Z,8.93
2017-08-23T00:04:17.138Z,8.60
2017-08-23T00:06:43.735Z,9.20
2017-08-23T00:09:10.315Z,8.60
2017-08-23T00:11:37.054Z,9.50
2017-08-23T00:14:03.643Z,9.17
2017-08-23T00:16:30.230Z,9.30
2017-08-23T00:18:56.827Z,9.07
2017-08-23T00:21:23.442Z,9.13
2017-08-23T00:23:50.367Z,8.93
2017-08-23T00:26:16.960Z,9.43
2017-08-23T00:28:43.555Z,8.60
2017-08-23T00:31:10.159Z,9.20
2017-08-23T00:33:36.736Z,9.70
2017-08-23T00:36:03.340Z,9.03
2017-08-23T00:38:29.943Z,9.03
2017-08-23T00:40:56.535Z,8.43
2017-08-23T00:43:23.149Z,8.90
2017-08-23T00:45:49.747Z,8.63
2017-08-23T00:48:16.447Z,8.87
2017-08-23T00:50:43.039Z,8.70
2017-08-23T00:53:09.629Z,8.23
2017-08-23T00:55:36.231Z,8.23
2017-08-23T00:58:02.834Z,8.00
2017-08-23T01:00:29.579Z,8.57
2017-08-23T01:02:56.167Z,8.70
2017-08-23T01:05:22.760Z,8.77
2017-08-23T01:07:49.435Z,8.20
2017-08-23T01:10:16.020Z,7.80
2017-08-23T01:12:42.758Z,8.60
2017-08-23T01:15:09.343Z,7.97
2017-08-23T01:17:35.971Z,8.90
2017-08-23T01:20:02.567Z,8.40
2017-08-23T01:22:29.166Z,8.10
2017-08-23T01:24:55.777Z,7.87
2017-08-23T01:27:22.367Z,8.63
2017-08-23T01:29:48.965Z,8.40
2017-08-23T01:32:15.557Z,8.00
2017-08-23T01:34:42.258Z,8.30
2017-08-23T01:37:08.861Z,7.97
2017-08-23T01:39:35.451Z,7.90
2017-08-23T01:42:02.264Z,8.40
2017-08-23T01:44:28.843Z,8.00
2017-08-23T01:46:55.435Z,7.53
2017-08-23T01:49:22.072Z,8.00
2017-08-23T01:51:48.655Z,7.70
2017-08-23T01:54:15.260Z,8.20
2017-08-23T01:56:41.848Z,8.20
2017-08-23T01:59:08.431Z,7.67
2017-08-23T02:01:35.184Z,8.07
2017-08-23T02:04:01.781Z,8.97
2017-08-23T02:06:28.371Z,9.57
2017-08-23T02:08:54.967Z,8.20
2017-08-23T02:11:21.647Z,8.60
2017-08-23T02:13:48.355Z,7.57
2017-08-23T02:16:14.947Z,8.03
2017-08-23T02:18:41.534Z,8.30
2017-08-23T02:21:08.158Z,7.43
2017-08-23T02:23:34.751Z,8.27
2017-08-23T02:26:01.714Z,7.60
2017-08-23T02:28:28.309Z,8.20
2017-08-23T02:30:54.918Z,7.80
2017-08-23T02:33:21.519Z,8.77
2017-08-23T02:35:48.107Z,8.13
2017-08-23T02:38:14.938Z,8.03
2017-08-23T02:40:41.519Z,8.50
2017-08-23T02:43:08.111Z,7.83
2017-08-23T02:45:34.740Z,7.90
2017-08-23T02:48:01.389Z,7.60
2017-08-23T02:50:28.131Z,8.37
2017-08-23T02:52:54.836Z,7.50
2017-08-23T02:55:21.452Z,7.87
2017-08-23T02:57:48.050Z,7.60
2017-08-23T03:00:14.643Z,7.90
2017-08-23T03:02:41.387Z,7.80
2017-08-23T03:05:07.976Z,8.23
2017-08-23T03:07:34.571Z,7.97
2017-08-23T03:10:01.219Z,8.00
2017-08-23T03:12:27.811Z,8.17
2017-08-23T03:14:54.768Z,8.07
2017-08-23T03:17:21.359Z,10.83
2017-08-23T03:19:47.956Z,8.30
2017-08-23T03:22:14.552Z,8.23
2017-08-23T03:24:41.135Z,8.23
2017-08-23T03:27:07.763Z,7.90
2017-08-23T03:29:34.352Z,8.07
2017-08-23T03:32:00.947Z,8.00
2017-08-23T03:34:27.543Z,7.67
2017-08-23T03:36:54.155Z,8.37
2017-08-23T03:39:20.891Z,8.27
2017-08-23T03:41:47.490Z,7.53
2017-08-23T03:44:14.135Z,8.00
2017-08-23T03:46:40.743Z,7.63
2017-08-23T03:49:07.322Z,7.80
2017-08-23T03:51:34.315Z,8.07
2017-08-23T03:54:00.897Z,7.50
2017-08-23T03:56:27.487Z,7.33
2017-08-23T03:58:54.078Z,7.87
2017-08-23T04:01:20.667Z,7.70
2017-08-23T04:03:47.296Z,7.20
2017-08-23T04:06:13.894Z,7.90
2017-08-23T04:08:40.487Z,7.83
2017-08-23T04:11:07.097Z,7.17
2017-08-23T04:13:33.680Z,7.50
2017-08-23T04:16:00.419Z,7.70
2017-08-23T04:18:27.019Z,8.10
2017-08-23T04:20:53.615Z,7.10
2017-08-23T04:23:20.213Z,7.57
2017-08-23T04:25:46.799Z,7.23
2017-08-23T04:28:13.543Z,8.20
2017-08-23T04:30:40.132Z,7.00
2017-08-23T04:33:06.722Z,6.80
2017-08-23T04:35:33.312Z,7.23
2017-08-23T04:37:59.899Z,6.80
2017-08-23T04:40:26.656Z,7.33
2017-08-23T04:42:53.247Z,7.80
2017-08-23T04:45:19.831Z,7.40
2017-08-23T04:47:46.428Z,7.20
2017-08-23T04:50:13.300Z,7.20
2017-08-23T04:52:40.039Z,7.57
2017-08-23T04:55:06.623Z,7.03
2017-08-23T04:57:33.251Z,7.57
2017-08-23T04:59:59.851Z,7.07
2017-08-23T05:02:26.467Z,6.10
2017-08-23T05:04:53.207Z,6.40
2017-08-23T05:07:19.792Z,6.60
2017-08-23T05:09:46.379Z,6.77
2017-08-23T05:12:12.974Z,6.97
2017-08-23T05:14:39.564Z,6.77
2017-08-23T05:17:06.396Z,6.80
2017-08-23T05:19:32.976Z,6.90
2017-08-23T05:21:59.563Z,6.60
2017-08-23T05:24:26.154Z,6.80
2017-08-23T05:26:52.751Z,6.30
2017-08-23T05:29:19.703Z,6.50
2017-08-23T05:31:46.295Z,7.00
2017-08-23T05:34:12.887Z,6.50
2017-08-23T05:36:39.499Z,6.77
2017-08-23T05:39:06.079Z,6.53
2017-08-23T05:41:32.819Z,5.97
2017-08-23T05:43:59.413Z,6.57
2017-08-23T05:46:25.995Z,6.60
2017-08-23T05:48:52.596Z,6.73
2017-08-23T05:51:19.191Z,6.30
2017-08-23T05:53:45.789Z,6.30
2017-08-23T05:56:12.387Z,6.67
2017-08-23T05:58:38.959Z,7.00
2017-08-23T06:01:05.762Z,6.53
2017-08-23T06:03:32.328Z,6.30
2017-08-23T06:05:58.939Z,6.20
2017-08-23T06:08:25.526Z,6.70
2017-08-23T06:10:52.122Z,6.40
2017-08-23T06:13:18.751Z,6.60
2017-08-23T06:15:45.332Z,6.40
2017-08-23T06:18:12.263Z,6.70
2017-08-23T06:20:38.863Z,6.87
2017-08-23T06:23:05.447Z,6.33
2017-08-23T06:25:32.050Z,6.17
2017-08-23T06:27:58.647Z,6.43
2017-08-23T06:30:25.283Z,6.30
2017-08-23T06:32:51.887Z,6.50
2017-08-23T06:35:18.479Z,6.27
2017-08-23T06:37:45.069Z,5.70
2017-08-23T06:40:11.651Z,6.50
2017-08-23T06:42:38.412Z,5.80
2017-08-23T06:45:05.012Z,6.37
2017-08-23T06:47:31.596Z,5.80
2017-08-23T06:49:58.191Z,5.43
2017-08-23T06:52:24.782Z,5.97
2017-08-23T06:54:51.527Z,5.90
2017-08-23T06:57:18.123Z,5.43
2017-08-23T06:59:44.711Z,5.93
2017-08-23T07:02:11.319Z,5.67
2017-08-23T07:04:37.912Z,5.80
2017-08-23T07:07:04.508Z,5.57
2017-08-23T07:09:31.092Z,5.83
2017-08-23T07:11:57.684Z,6.27
2017-08-23T07:14:24.307Z,6.30
2017-08-23T07:16:50.895Z,6.20
2017-08-23T07:19:17.644Z,6.13
2017-08-23T07:21:44.235Z,5.70
2017-08-23T07:24:10.833Z,5.30
2017-08-23T07:26:37.429Z,5.40
2017-08-23T07:29:04.012Z,5.47
2017-08-23T07:31:30.772Z,5.60
2017-08-23T07:33:57.348Z,5.20
2017-08-23T07:36:23.936Z,5.40
2017-08-23T07:38:50.532Z,5.60
2017-08-23T07:41:17.121Z,5.20
2017-08-23T07:43:43.878Z,5.57
2017-08-23T07:46:10.485Z,5.20
2017-08-23T07:48:37.275Z,5.73
2017-08-23T07:51:03.855Z,5.30
2017-08-23T07:53:30.444Z,5.33
2017-08-23T07:55:57.179Z,5.20
2017-08-23T07:58:23.762Z,5.33
2017-08-23T08:00:50.356Z,5.73
2017-08-23T08:03:16.943Z,5.50
2017-08-23T08:05:43.564Z,5.10
2017-08-23T08:08:10.267Z,5.20
2017-08-23T08:10:36.843Z,5.70
2017-08-23T08:13:03.444Z,5.37
2017-08-23T08:15:30.044Z,5.77
2017-08-23T08:17:56.635Z,5.20
2017-08-23T08:20:23.388Z,4.90
2017-08-23T08:22:49.975Z,4.97
2017-08-23T08:25:16.564Z,4.50
2017-08-23T08:27:43.160Z,4.60
2017-08-23T08:30:09.764Z,5.13
2017-08-23T08:32:36.396Z,5.07
2017-08-23T08:35:02.994Z,5.47
2017-08-23T08:37:29.591Z,4.90
2017-08-23T08:39:56.172Z,4.50
2017-08-23T08:42:22.843Z,4.50
2017-08-23T08:44:49.429Z,4.87
2017-08-23T08:47:16.028Z,4.83
2017-08-23T08:49:42.608Z,4.70
2017-08-23T08:52:09.198Z,5.17
2017-08-23T08:54:35.804Z,4.97
2017-08-23T08:57:02.443Z,5.03
2017-08-23T08:59:29.146Z,4.70
2017-08-23T09:01:55.751Z,4.30
2017-08-23T09:04:22.331Z,4.73
2017-08-23T09:06:49.223Z,4.43
2017-08-23T09:09:15.816Z,4.57
2017-08-23T09:11:42.406Z,4.20
2017-08-23T09:14:09.367Z,4.60
2017-08-23T09:16:35.950Z,4.30
2017-08-23T09:19:02.548Z,4.43
2017-08-23T09:21:29.133Z,4.40
2017-08-23T09:23:55.712Z,5.03
2017-08-23T09:26:22.467Z,4.70
2017-08-23T09:28:49.051Z,4.43
2017-08-23T09:31:15.654Z,4.47
2017-08-23T09:33:42.251Z,4.17
2017-08-23T09:36:08.835Z,4.67
2017-08-23T09:38:35.587Z,4.60
2017-08-23T09:41:02.183Z,4.20
2017-08-23T09:43:28.773Z,4.30
2017-08-23T09:45:55.372Z,4.70
2017-08-23T09:48:21.964Z,4.60
2017-08-23T09:50:48.713Z,4.60
2017-08-23T09:53:15.216Z,4.70
2017-08-23T09:55:41.800Z,4.20
2017-08-23T09:58:08.464Z,4.60
2017-08-23T10:00:35.062Z,4.30
2017-08-23T10:03:01.816Z,4.10
2017-08-23T10:05:28.407Z,3.97
2017-08-23T10:07:54.999Z,4.27
2017-08-23T10:10:21.655Z,3.80
2017-08-23T10:12:48.236Z,3.90
2017-08-23T10:15:14.940Z,3.90
2017-08-23T10:17:41.527Z,3.93
2017-08-23T10:20:08.143Z,3.73
2017-08-23T10:22:34.742Z,4.00
2017-08-23T10:25:01.334Z,3.90
2017-08-23T10:27:28.100Z,4.10
2017-08-23T10:29:54.680Z,3.70
2017-08-23T10:32:21.294Z,3.60
2017-08-23T10:34:47.895Z,3.60
2017-08-23T10:37:14.474Z,4.20
2017-08-23T10:39:41.457Z,3.90
2017-08-23T10:42:08.035Z,3.40
2017-08-23T10:44:34.629Z,3.90
2017-08-23T10:47:01.236Z,3.57
2017-08-23T10:49:27.803Z,3.90
2017-08-23T10:51:54.696Z,3.70
2017-08-23T10:54:21.287Z,3.47
2017-08-23T10:56:47.872Z,3.50
2017-08-23T10:59:14.524Z,3.73
2017-08-23T11:01:41.116Z,3.60
2017-08-23T11:04:07.871Z,3.70
2017-08-23T11:06:34.455Z,3.80
2017-08-23T11:09:01.047Z,3.70
2017-08-23T11:11:27.635Z,3.77
2017-08-23T11:13:54.928Z,3.50
2017-08-23T11:16:21.702Z,3.60
2017-08-23T11:18:48.279Z,3.47
2017-08-23T11:21:14.867Z,3.50
2017-08-23T11:23:41.469Z,3.60
2017-08-23T11:26:08.091Z,3.60
2017-08-23T11:28:34.831Z,3.20
2017-08-23T11:31:01.423Z,3.50
2017-08-23T11:33:28.019Z,3.87
2017-08-23T11:35:54.611Z,3.30
2017-08-23T11:38:21.200Z,3.40
2017-08-23T11:40:48.023Z,3.23
2017-08-23T11:43:14.621Z,3.40
2017-08-23T11:45:41.218Z,3.80
2017-08-23T11:48:07.815Z,3.60
2017-08-23T11:50:34.404Z,3.60
2017-08-23T11:53:01.151Z,3.50
2017-08-23T11:55:27.748Z,3.40
2017-08-23T11:57:54.362Z,3.57
2017-08-23T12:00:21.048Z,3.50
2017-08-23T12:02:47.637Z,3.80
2017-08-23T12:05:14.451Z,3.50
2017-08-23T12:07:41.075Z,3.70
2017-08-23T12:10:07.752Z,3.40
2017-08-23T12:12:34.353Z,3.60
2017-08-23T12:15:00.931Z,3.60
2017-08-23T12:17:27.710Z,3.30
2017-08-23T12:19:54.286Z,3.70
2017-08-23T12:22:20.883Z,3.63
2017-08-23T12:24:47.483Z,3.20
2017-08-23T12:27:14.091Z,3.43
2017-08-23T12:29:41.058Z,3.70
2017-08-23T12:32:07.627Z,3.43
2017-08-23T12:34:34.248Z,3.60
2017-08-23T12:37:00.848Z,3.17
2017-08-23T12:39:27.428Z,3.60
2017-08-23T12:41:54.179Z,3.50
2017-08-23T12:44:20.788Z,3.63
2017-08-23T12:46:47.376Z,3.27
2017-08-23T12:49:13.996Z,3.40
2017-08-23T12:51:40.814Z,3.83
2017-08-23T12:54:07.726Z,3.90
2017-08-23T12:56:34.315Z,3.20
2017-08-23T12:59:00.905Z,3.50
2017-08-23T13:01:27.503Z,3.40
2017-08-23T13:03:54.093Z,3.33
2017-08-23T13:06:20.733Z,3.40
2017-08-23T13:08:47.338Z,3.30
2017-08-23T13:11:13.934Z,3.23
2017-08-23T13:13:40.515Z,3.13
2017-08-23T13:16:07.183Z,3.30
2017-08-23T13:18:33.914Z,3.10
2017-08-23T13:21:00.543Z,3.20
2017-08-23T13:23:27.105Z,3.33
2017-08-23T13:25:53.700Z,3.10
2017-08-23T13:28:20.328Z,3.00
2017-08-23T13:30:46.968Z,3.07
2017-08-23T13:33:13.551Z,3.10
2017-08-23T13:35:40.140Z,3.23
2017-08-23T13:38:06.748Z,3.20
2017-08-23T13:40:33.344Z,3.53
2017-08-23T13:43:00.112Z,3.00
2017-08-23T13:45:26.735Z,3.70
2017-08-23T13:47:53.323Z,3.50
2017-08-23T13:50:19.918Z,3.40
2017-08-23T13:52:46.514Z,3.33
2017-08-23T13:55:13.111Z,3.10
2017-08-23T13:57:39.696Z,2.83
2017-08-23T14:00:06.288Z,3.43
2017-08-23T14:02:32.910Z,3.47
2017-08-23T14:04:59.495Z,3.37
2017-08-23T14:07:26.102Z,3.07
2017-08-23T14:09:52.699Z,3.43
2017-08-23T14:12:19.349Z,2.97
2017-08-23T14:14:45.904Z,3.13
2017-08-23T14:17:12.491Z,3.43
2017-08-23T14:19:39.333Z,3.23
2017-08-23T14:22:05.890Z,3.40
2017-08-23T14:24:32.507Z,3.10
2017-08-23T14:26:59.107Z,3.80
2017-08-23T14:29:25.683Z,3.00
2017-08-23T14:31:52.467Z,3.37
2017-08-23T14:34:19.072Z,3.30
2017-08-23T14:36:45.662Z,3.33
2017-08-23T14:39:12.283Z,2.90
2017-08-23T14:41:38.947Z,3.57
2017-08-23T14:44:05.631Z,3.43
2017-08-23T14:46:32.216Z,3.50
2017-08-23T14:48:58.815Z,3.20
2017-08-23T14:51:25.411Z,3.17
2017-08-23T14:53:52.028Z,3.60
2017-08-23T14:56:18.775Z,3.33
2017-08-23T14:58:45.375Z,3.40
2017-08-23T15:01:11.975Z,3.23
2017-08-23T15:03:39.697Z,4.00
2017-08-23T15:06:06.301Z,4.40
2017-08-23T15:08:33.044Z,3.43
2017-08-23T15:10:59.632Z,3.53
2017-08-23T15:13:26.215Z,3.50
2017-08-23T15:15:52.812Z,3.47
2017-08-23T15:18:19.463Z,4.00
2017-08-23T15:20:46.203Z,3.67
2017-08-23T15:23:12.796Z,3.10
2017-08-23T15:25:39.384Z,4.17
2017-08-23T15:28:06.009Z,3.80
2017-08-23T15:30:32.579Z,3.93
2017-08-23T15:32:59.179Z,4.13
2017-08-23T15:35:25.772Z,4.30
2017-08-23T15:37:52.403Z,3.57
2017-08-23T15:40:19.587Z,4.00
2017-08-23T15:42:46.228Z,3.83
2017-08-23T15:45:12.920Z,3.90
2017-08-23T15:47:39.507Z,4.00
2017-08-23T15:50:06.100Z,3.50
2017-08-23T15:52:32.687Z,3.80
2017-08-23T15:54:59.278Z,3.57
2017-08-23T15:57:26.040Z,3.90
2017-08-23T15:59:52.615Z,3.87
2017-08-23T16:02:19.205Z,3.70
2017-08-23T16:04:45.799Z,3.80
2017-08-23T16:07:12.391Z,3.40
2017-08-23T16:09:39.279Z,3.70
2017-08-23T16:12:05.863Z,3.80
2017-08-23T16:14:32.516Z,4.17
2017-08-23T16:16:59.113Z,4.00
2017-08-23T16:19:25.704Z,4.50
2017-08-23T16:21:52.295Z,3.83
2017-08-23T16:24:18.907Z,3.87
2017-08-23T16:26:45.480Z,3.87
2017-08-23T16:29:12.075Z,3.80
2017-08-23T16:31:38.768Z,4.10
2017-08-23T16:34:05.372Z,3.80
2017-08-23T16:36:32.067Z,4.27
2017-08-23T16:38:58.683Z,4.50
2017-08-23T16:41:25.271Z,3.93
2017-08-23T16:43:52.023Z,4.67
2017-08-23T16:46:18.617Z,4.07
2017-08-23T16:48:45.208Z,4.20
2017-08-23T16:51:11.960Z,4.23
2017-08-23T16:53:38.560Z,4.00
2017-08-23T16:56:05.143Z,4.13
2017-08-23T16:58:31.772Z,4.20
2017-08-23T17:00:58.373Z,4.67
2017-08-23T17:03:25.123Z,4.43
2017-08-23T17:05:51.720Z,4.50
2017-08-23T17:08:18.333Z,4.30
2017-08-23T17:10:45.081Z,4.60
2017-08-23T17:13:11.667Z,4.33
2017-08-23T17:15:38.429Z,4.37
2017-08-23T17:18:05.013Z,4.07
2017-08-23T17:20:31.599Z,4.50
2017-08-23T17:22:58.196Z,4.47
2017-08-23T17:25:24.783Z,4.33
2017-08-23T17:27:51.496Z,4.23
2017-08-23T17:30:18.085Z,4.87
2017-08-23T17:32:44.679Z,4.30
2017-08-23T17:35:11.284Z,4.20
2017-08-23T17:37:37.869Z,4.50
2017-08-23T17:40:04.499Z,4.67
2017-08-23T17:42:31.127Z,5.03
2017-08-23T17:44:57.756Z,4.73
2017-08-23T17:47:24.356Z,4.53
2017-08-23T17:49:50.952Z,4.33
2017-08-23T17:52:17.571Z,4.30
2017-08-23T17:54:44.231Z,3.80
2017-08-23T17:57:14.505Z,4.40
2017-08-23T17:59:41.103Z,4.80
2017-08-23T18:02:09.543Z,4.20
2017-08-23T18:04:36.139Z,4.30
2017-08-23T18:07:02.740Z,4.77
2017-08-23T18:09:29.356Z,4.87
2017-08-23T18:11:55.956Z,4.90
2017-08-23T18:14:22.540Z,4.87
2017-08-23T18:16:50.943Z,5.10
2017-08-23T18:19:17.551Z,4.70
2017-08-23T18:21:44.139Z,5.53
2017-08-23T18:24:10.735Z,4.93
2017-08-23T18:26:39.170Z,4.87
2017-08-23T18:29:05.924Z,4.97
2017-08-23T18:31:32.519Z,5.30
2017-08-23T18:33:59.151Z,4.63
2017-08-23T18:36:25.863Z,5.17
2017-08-23T18:38:53.372Z,4.90
2017-08-23T18:41:20.080Z,4.77
2017-08-23T18:43:46.718Z,4.93
2017-08-23T18:46:13.303Z,4.47
2017-08-23T18:48:39.915Z,4.60
2017-08-23T18:51:07.545Z,4.90
2017-08-23T18:53:34.149Z,5.13
2017-08-23T18:58:59.087Z,4.97
2017-08-23T19:01:27.110Z,5.23
2017-08-23T19:03:53.706Z,5.70
2017-08-23T19:06:24.145Z,5.03
2017-08-23T19:08:50.749Z,4.77
2017-08-23T19:11:17.330Z,4.40
2017-08-23T19:13:44.168Z,4.73
2017-08-23T19:16:10.762Z,5.10
2017-08-23T19:18:37.334Z,4.93
2017-08-23T19:21:03.951Z,5.13
2017-08-23T19:23:30.534Z,4.60
2017-08-23T19:25:57.110Z,5.10
2017-08-23T19:28:23.793Z,4.70
2017-08-23T19:30:50.369Z,4.97
2017-08-23T19:33:16.957Z,4.90
2017-08-23T19:35:43.605Z,5.00
2017-08-23T19:38:10.170Z,4.90
2017-08-23T19:40:36.738Z,5.40
2017-08-23T19:43:03.457Z,4.90
2017-08-23T19:45:30.027Z,4.70
2017-08-23T19:47:56.604Z,5.30
2017-08-23T19:50:23.328Z,4.83
2017-08-23T19:52:49.976Z,5.20
2017-08-23T19:55:16.573Z,4.90
2017-08-23T19:57:43.313Z,5.10
2017-08-23T20:00:09.884Z,4.83
2017-08-23T20:02:36.456Z,4.87
2017-08-23T20:05:06.364Z,5.30
2017-08-23T20:07:32.936Z,4.87
2017-08-23T20:09:59.512Z,5.00
2017-08-23T20:12:26.184Z,5.30
2017-08-23T20:14:58.958Z,4.97
2017-08-23T20:17:25.525Z,5.10
2017-08-23T20:19:52.112Z,4.83
2017-08-23T20:22:18.689Z,5.10
2017-08-23T20:24:45.289Z,5.70
2017-08-23T20:27:11.921Z,4.73
2017-08-23T20:29:38.661Z,4.80
2017-08-23T20:32:05.421Z,5.20
2017-08-23T20:34:32.340Z,4.93
2017-08-23T20:36:58.905Z,5.13
2017-08-23T20:39:25.756Z,4.87
2017-08-23T20:41:52.316Z,4.77
2017-08-23T20:44:18.889Z,4.97
2017-08-23T20:46:45.796Z,5.30
2017-08-23T20:49:12.373Z,4.90
2017-08-23T20:51:38.956Z,5.40
2017-08-23T20:54:05.573Z,4.87
2017-08-23T20:56:32.164Z,5.10
2017-08-23T20:58:58.733Z,5.13
2017-08-23T21:01:25.323Z,5.10
2017-08-23T21:03:52.012Z,5.30
2017-08-23T21:06:18.585Z,5.30
2017-08-23T21:08:45.329Z,6.47
2017-08-23T21:11:11.904Z,6.40
2017-08-23T21:13:38.476Z,5.20
2017-08-23T21:16:05.204Z,5.57
2017-08-23T21:18:31.780Z,6.60
2017-08-23T21:20:58.352Z,8.30
2017-08-23T21:23:24.949Z,7.10
2017-08-23T21:25:51.535Z,5.70
2017-08-23T21:28:18.113Z,6.13
2017-08-23T21:30:44.729Z,8.87
2017-08-23T21:33:11.321Z,8.57
2017-08-23T21:35:37.892Z,7.27
2017-08-23T21:38:04.493Z,7.77
2017-08-23T21:40:31.073Z,7.97
2017-08-23T21:42:57.656Z,7.93
2017-08-23T21:45:24.341Z,8.07
2017-08-23T21:47:50.929Z,10.33
2017-08-23T21:50:17.504Z,11.93
2017-08-23T21:52:44.255Z,10.73
2017-08-23T21:55:10.808Z,9.93
2017-08-23T21:57:37.396Z,8.43
2017-08-23T22:00:04.136Z,6.80
2017-08-23T22:02:30.710Z,6.50
2017-08-23T22:04:57.280Z,6.10
2017-08-23T22:07:24.039Z,6.33
2017-08-23T22:09:50.659Z,5.83
2017-08-23T22:12:17.205Z,5.70
2017-08-23T22:14:43.880Z,6.03
2017-08-23T22:17:10.461Z,5.97
2017-08-23T22:19:37.059Z,5.90
2017-08-23T22:22:03.740Z,6.27
2017-08-23T22:24:30.396Z,5.57
2017-08-23T22:26:56.996Z,6.60
2017-08-23T22:29:23.620Z,5.87
2017-08-23T22:31:50.193Z,6.17
2017-08-23T22:34:16.756Z,6.50
2017-08-23T22:36:43.381Z,6.43
2017-08-23T22:39:09.949Z,6.37
2017-08-23T22:41:36.522Z,5.93
2017-08-23T22:44:03.208Z,6.10
2017-08-23T22:46:29.808Z,6.23
2017-08-23T22:48:56.389Z,6.57
2017-08-23T22:51:22.985Z,6.30
2017-08-23T22:53:49.556Z,6.17
2017-08-23T22:56:16.129Z,5.93
2017-08-23T22:58:42.809Z,6.17
2017-08-23T23:01:09.381Z,6.23
2017-08-23T23:03:35.952Z,6.13
2017-08-23T23:06:02.640Z,6.10
2017-08-23T23:08:29.219Z,6.40
2017-08-23T23:10:55.803Z,6.37
2017-08-23T23:13:22.577Z,6.50
2017-08-23T23:15:49.159Z,6.23
2017-08-23T23:18:15.715Z,5.97
2017-08-23T23:20:42.517Z,6.20
2017-08-23T23:23:09.113Z,6.17
2017-08-23T23:25:35.705Z,6.37
2017-08-23T23:28:02.428Z,6.17
2017-08-23T23:30:29.002Z,5.50
2017-08-23T23:32:55.578Z,6.53
2017-08-23T23:35:23.104Z,6.73
2017-08-23T23:37:49.676Z,6.23
2017-08-23T23:40:16.248Z,6.03
2017-08-23T23:42:42.972Z,6.50
2017-08-23T23:45:09.545Z,6.90
2017-08-23T23:47:36.127Z,6.50
2017-08-23T23:50:02.725Z,6.43
2017-08-23T23:52:29.292Z,6.70
2017-08-23T23:54:55.868Z,7.17
2017-08-23T23:57:22.604Z,6.90
2017-08-23T23:59:49.251Z,7.10
